createdAt,value
2022-08-26T00:01:10.814Z,42.60
2022-08-26T00:03:45.777Z,42.70
2022-08-26T00:06:20.980Z,42.80
2022-08-26T00:08:56.031Z,42.80
2022-08-26T00:11:31.074Z,42.80
2022-08-26T00:14:06.058Z,42.90
2022-08-26T00:16:48.042Z,43.10
2022-08-26T00:19:23.886Z,43.10
2022-08-26T00:21:58.968Z,43.20
2022-08-26T00:24:34.626Z,43.20
2022-08-26T00:27:09.587Z,43.50
2022-08-26T00:29:45.073Z,43.80
2022-08-26T00:32:20.062Z,43.80
2022-08-26T00:34:55.068Z,43.90
2022-08-26T00:37:30.020Z,44.20
2022-08-26T00:40:11.340Z,44.10
2022-08-26T00:42:46.601Z,44.10
2022-08-26T00:45:23.900Z,44.50
2022-08-26T00:48:03.789Z,44.50
2022-08-26T00:50:43.314Z,44.50
2022-08-26T00:53:24.192Z,44.60
2022-08-26T00:56:18.277Z,44.70
2022-08-26T00:58:56.983Z,45.00
2022-08-26T01:01:32.463Z,45.30
2022-08-26T01:04:10.196Z,45.20
2022-08-26T01:06:46.770Z,45.20
2022-08-26T01:09:23.638Z,45.30
2022-08-26T01:12:02.341Z,45.40
2022-08-26T01:14:40.159Z,45.60
2022-08-26T01:17:15.256Z,45.70
2022-08-26T01:20:01.451Z,45.80
2022-08-26T01:22:55.542Z,46.00
2022-08-26T01:25:33.817Z,46.00
2022-08-26T01:28:16.363Z,46.10
2022-08-26T01:30:55.999Z,46.20
2022-08-26T01:33:54.858Z,46.30
2022-08-26T01:36:31.422Z,46.40
2022-08-26T01:39:07.753Z,46.50
2022-08-26T01:41:44.158Z,46.90
2022-08-26T01:44:25.683Z,47.00
2022-08-26T01:47:02.213Z,47.10
2022-08-26T01:49:44.426Z,46.90
2022-08-26T01:52:27.581Z,47.10
2022-08-26T01:55:05.273Z,47.40
2022-08-26T01:57:44.883Z,47.70
2022-08-26T02:00:19.874Z,47.90
2022-08-26T02:03:16.482Z,48.10
2022-08-26T02:06:00.813Z,48.00
2022-08-26T02:08:46.923Z,48.00
2022-08-26T02:11:22.641Z,48.00
2022-08-26T02:14:11.155Z,48.00
2022-08-26T02:16:50.210Z,48.20
2022-08-26T02:19:30.872Z,48.40
2022-08-26T02:22:14.242Z,48.90
2022-08-26T02:25:08.213Z,48.70
2022-08-26T02:27:43.530Z,48.90
2022-08-26T02:30:28.075Z,49.20
2022-08-26T02:33:06.881Z,49.50
2022-08-26T02:35:43.274Z,49.60
2022-08-26T02:38:18.313Z,49.90
2022-08-26T02:40:53.365Z,50.20
2022-08-26T02:43:32.721Z,50.30
2022-08-26T02:46:08.011Z,50.50
2022-08-26T02:48:43.742Z,50.80
2022-08-26T02:51:18.723Z,51.20
2022-08-26T02:53:54.076Z,51.60
2022-08-26T02:56:33.718Z,51.80
2022-08-26T02:59:15.414Z,52.20
2022-08-26T03:01:50.547Z,52.50
2022-08-26T03:04:25.854Z,52.80
2022-08-26T03:07:01.438Z,53.00
2022-08-26T03:09:36.427Z,53.20
2022-08-26T03:12:12.002Z,53.30
2022-08-26T03:14:49.026Z,53.80
2022-08-26T03:17:23.994Z,54.10
2022-08-26T03:20:02.688Z,54.40
2022-08-26T03:22:40.204Z,54.70
2022-08-26T03:25:16.726Z,54.70
2022-08-26T03:27:53.538Z,55.50
2022-08-26T03:30:45.103Z,56.30
2022-08-26T03:33:20.702Z,56.60
2022-08-26T03:35:55.678Z,56.80
2022-08-26T03:38:32.566Z,57.60
2022-08-26T03:41:09.698Z,58.00
2022-08-26T03:43:45.514Z,58.40
2022-08-26T03:46:22.869Z,58.80
2022-08-26T03:49:05.158Z,58.50
2022-08-26T03:51:40.517Z,58.40
2022-08-26T03:54:17.970Z,58.40
2022-08-26T03:56:53.592Z,58.30
2022-08-26T03:59:28.729Z,58.70
2022-08-26T04:02:03.798Z,58.70
2022-08-26T04:04:46.473Z,58.40
2022-08-26T04:07:21.679Z,58.50
2022-08-26T04:09:58.892Z,59.00
2022-08-26T04:12:34.305Z,59.30
2022-08-26T04:15:14.008Z,59.50
2022-08-26T04:17:49.532Z,60.50
2022-08-26T04:20:26.622Z,60.70
2022-08-26T04:23:01.747Z,61.00
2022-08-26T04:25:36.942Z,61.30
2022-08-26T04:28:15.623Z,61.40
2022-08-26T04:30:51.112Z,61.70
2022-08-26T04:33:32.262Z,61.60
2022-08-26T04:36:09.005Z,61.50
2022-08-26T04:38:45.723Z,62.10
2022-08-26T04:41:21.209Z,62.60
2022-08-26T04:43:57.028Z,63.40
2022-08-26T04:46:33.655Z,63.60
2022-08-26T04:49:09.638Z,63.70
2022-08-26T04:51:47.050Z,63.60
2022-08-26T04:54:22.256Z,63.00
2022-08-26T04:56:57.474Z,62.30
2022-08-26T04:59:36.022Z,62.30
2022-08-26T05:02:14.200Z,62.10
2022-08-26T05:04:49.411Z,61.60
2022-08-26T05:07:27.067Z,61.00
2022-08-26T05:10:03.892Z,60.50
2022-08-26T05:12:44.363Z,60.10
2022-08-26T05:15:19.546Z,60.00
2022-08-26T05:17:54.634Z,59.90
2022-08-26T05:20:30.060Z,59.80
2022-08-26T05:23:05.264Z,59.70
2022-08-26T05:25:48.304Z,59.70
2022-08-26T05:28:23.525Z,59.80
2022-08-26T05:30:59.563Z,59.70
2022-08-26T05:33:35.070Z,59.50
2022-08-26T05:36:15.182Z,59.20
2022-08-26T05:38:50.568Z,58.90
2022-08-26T05:41:36.042Z,58.80
2022-08-26T05:44:15.050Z,58.00
2022-08-26T05:46:51.888Z,57.20
2022-08-26T05:49:26.854Z,56.70
2022-08-26T05:52:01.826Z,56.30
2022-08-26T05:54:39.713Z,55.70
2022-08-26T05:57:14.754Z,55.20
2022-08-26T05:59:49.845Z,54.70
2022-08-26T06:02:24.879Z,54.30
2022-08-26T06:05:00.994Z,54.00
2022-08-26T06:07:54.734Z,53.60
2022-08-26T06:10:32.787Z,53.20
2022-08-26T06:13:11.942Z,52.40
2022-08-26T06:15:50.130Z,52.20
2022-08-26T06:18:36.437Z,52.00
2022-08-26T06:21:42.690Z,51.80
2022-08-26T06:24:36.881Z,51.40
2022-08-26T06:27:15.176Z,51.20
2022-08-26T06:29:51.531Z,51.10
2022-08-26T06:32:26.574Z,51.00
2022-08-26T06:35:01.653Z,50.90
2022-08-26T06:37:36.732Z,50.70
2022-08-26T06:40:12.179Z,50.50
2022-08-26T06:42:47.276Z,50.30
2022-08-26T06:45:22.412Z,50.10
2022-08-26T06:47:57.490Z,49.90
2022-08-26T06:50:34.273Z,49.70
2022-08-26T06:53:11.179Z,49.60
2022-08-26T06:55:46.853Z,49.30
2022-08-26T06:58:26.725Z,49.20
2022-08-26T07:01:04.426Z,49.00
2022-08-26T07:03:48.259Z,48.80
2022-08-26T07:06:24.633Z,48.50
2022-08-26T07:09:06.388Z,48.30
2022-08-26T07:11:45.797Z,48.20
2022-08-26T07:14:21.793Z,47.70
2022-08-26T07:16:57.312Z,47.50
2022-08-26T07:19:32.314Z,47.30
2022-08-26T07:22:08.648Z,47.10
2022-08-26T07:24:45.653Z,46.80
2022-08-26T07:27:21.162Z,46.50
2022-08-26T07:29:57.436Z,46.40
2022-08-26T07:32:33.232Z,46.20
2022-08-26T07:35:08.758Z,45.80
2022-08-26T07:37:43.775Z,45.40
2022-08-26T07:40:19.154Z,45.20
2022-08-26T07:42:55.315Z,44.40
2022-08-26T07:45:30.311Z,44.40
2022-08-26T07:48:05.971Z,44.30
2022-08-26T07:50:50.256Z,44.10
2022-08-26T07:53:25.867Z,43.90
2022-08-26T07:56:01.049Z,43.80
2022-08-26T07:58:36.277Z,43.60
2022-08-26T08:01:12.368Z,43.50
2022-08-26T08:03:51.554Z,43.40
2022-08-26T08:06:28.259Z,43.20
2022-08-26T08:09:06.687Z,43.10
2022-08-26T08:11:42.506Z,43.00
2022-08-26T08:14:22.049Z,42.80
2022-08-26T08:16:57.637Z,42.70
2022-08-26T08:19:39.102Z,42.50
2022-08-26T08:22:19.936Z,42.30
2022-08-26T08:24:56.833Z,42.10
2022-08-26T08:27:38.183Z,41.90
2022-08-26T08:30:15.092Z,41.70
2022-08-26T08:32:56.292Z,41.60
2022-08-26T08:35:31.306Z,41.50
2022-08-26T08:38:06.486Z,41.20
2022-08-26T08:40:45.686Z,41.20
2022-08-26T08:43:29.478Z,41.00
2022-08-26T08:46:12.932Z,41.00
2022-08-26T08:48:54.566Z,40.80
2022-08-26T08:51:38.735Z,40.60
2022-08-26T08:54:14.295Z,40.40
2022-08-26T08:57:03.754Z,40.20
2022-08-26T08:59:59.546Z,39.60
2022-08-26T09:02:46.237Z,39.20
2022-08-26T09:05:31.649Z,38.80
2022-08-26T09:08:20.171Z,38.30
2022-08-26T09:11:01.485Z,38.00
2022-08-26T09:13:38.746Z,37.40
2022-08-26T09:16:41.395Z,36.90
2022-08-26T09:19:40.025Z,36.60
2022-08-26T09:22:35.487Z,36.10
2022-08-26T09:25:14.143Z,35.10
2022-08-26T09:27:52.501Z,35.20
2022-08-26T09:30:35.363Z,34.80
2022-08-26T09:33:18.201Z,34.20
2022-08-26T09:36:16.510Z,33.80
2022-08-26T09:38:54.061Z,33.60
2022-08-26T09:41:33.273Z,33.00
2022-08-26T09:44:18.335Z,32.50
2022-08-26T09:47:06.075Z,32.20
2022-08-26T09:49:41.764Z,32.30
2022-08-26T09:52:27.466Z,32.10
2022-08-26T09:55:21.607Z,31.90
2022-08-26T09:57:57.534Z,31.50
2022-08-26T10:00:57.303Z,31.40
2022-08-26T10:03:36.294Z,30.70
2022-08-26T10:06:17.606Z,30.70
2022-08-26T10:09:05.582Z,30.50
2022-08-26T10:11:50.158Z,30.70
2022-08-26T10:14:31.825Z,30.80
2022-08-26T10:17:24.883Z,30.30
2022-08-26T10:20:22.938Z,30.50
2022-08-26T10:23:02.905Z,30.50
2022-08-26T10:26:05.618Z,30.30
2022-08-26T10:28:58.044Z,30.40
2022-08-26T10:31:51.418Z,30.50
2022-08-26T10:34:27.086Z,30.30
2022-08-26T10:37:20.420Z,30.30
2022-08-26T10:40:02.383Z,30.20
2022-08-26T10:42:44.766Z,30.40
2022-08-26T10:45:26.557Z,30.40
2022-08-26T10:48:12.403Z,30.10
2022-08-26T10:50:48.728Z,30.00
2022-08-26T10:53:33.748Z,30.20
2022-08-26T10:56:38.193Z,30.10
2022-08-26T10:59:31.083Z,30.20
2022-08-26T11:02:31.744Z,30.40
2022-08-26T11:05:23.601Z,30.60
2022-08-26T11:08:20.445Z,30.70
2022-08-26T11:10:59.557Z,30.10
2022-08-26T11:13:56.696Z,30.30
2022-08-26T11:16:52.941Z,30.00
2022-08-26T11:19:59.658Z,30.00
2022-08-26T11:22:47.527Z,30.00
2022-08-26T11:25:30.004Z,30.00
2022-08-26T11:28:06.084Z,30.50
2022-08-26T11:30:43.777Z,30.30
2022-08-26T11:33:51.845Z,30.10
2022-08-26T11:36:51.001Z,29.90
2022-08-26T11:39:53.998Z,29.70
2022-08-26T11:42:49.093Z,29.20
2022-08-26T11:45:59.625Z,29.20
2022-08-26T11:48:38.789Z,28.90
2022-08-26T11:51:24.409Z,29.10
2022-08-26T11:54:30.777Z,28.60
2022-08-26T11:57:13.540Z,29.20
2022-08-26T11:59:48.712Z,29.10
2022-08-26T12:02:24.211Z,29.20
2022-08-26T12:05:00.514Z,29.30
2022-08-26T12:07:35.603Z,29.00
2022-08-26T12:10:11.435Z,28.80
2022-08-26T12:12:55.112Z,28.70
2022-08-26T12:15:32.373Z,28.90
2022-08-26T12:18:28.885Z,28.80
2022-08-26T12:21:29.323Z,28.60
2022-08-26T12:24:09.866Z,28.50
2022-08-26T12:26:45.492Z,28.40
2022-08-26T12:29:28.306Z,28.00
2022-08-26T12:32:14.912Z,28.00
2022-08-26T12:34:50.168Z,27.80
2022-08-26T12:37:28.143Z,27.80
2022-08-26T12:40:35.411Z,27.80
2022-08-26T12:43:15.865Z,27.60
2022-08-26T12:46:02.144Z,27.40
2022-08-26T12:48:41.222Z,27.10
2022-08-26T12:51:26.652Z,27.20
2022-08-26T12:54:06.631Z,27.10
2022-08-26T12:56:41.692Z,26.90
2022-08-26T12:59:25.768Z,26.60
2022-08-26T13:02:00.946Z,26.70
2022-08-26T13:04:41.036Z,26.70
2022-08-26T13:07:24.318Z,26.70
2022-08-26T13:10:00.888Z,26.50
2022-08-26T13:12:37.418Z,26.20
2022-08-26T13:15:12.549Z,26.10
2022-08-26T13:17:47.736Z,25.80
2022-08-26T13:20:22.976Z,25.80
2022-08-26T13:22:59.464Z,25.70
2022-08-26T13:25:34.573Z,25.80
2022-08-26T13:28:09.579Z,25.70
2022-08-26T13:30:48.132Z,25.70
2022-08-26T13:33:23.088Z,25.50
2022-08-26T13:35:59.871Z,25.60
2022-08-26T13:38:34.962Z,25.60
2022-08-26T13:41:11.281Z,25.70
2022-08-26T13:43:48.757Z,25.80
2022-08-26T13:46:23.763Z,26.10
2022-08-26T13:48:59.222Z,26.40
2022-08-26T13:51:34.398Z,26.70
2022-08-26T13:54:09.525Z,26.80
2022-08-26T13:56:45.173Z,26.80
2022-08-26T13:59:20.129Z,26.90
2022-08-26T14:01:55.180Z,27.10
2022-08-26T14:04:30.308Z,27.10
2022-08-26T14:07:05.325Z,27.20
2022-08-26T14:09:40.605Z,27.30
2022-08-26T14:12:16.514Z,27.40
2022-08-26T14:14:51.652Z,27.40
2022-08-26T14:17:27.154Z,27.30
2022-08-26T14:20:09.153Z,27.10
2022-08-26T14:23:03.411Z,27.20
2022-08-26T14:25:40.302Z,26.90
2022-08-26T14:28:16.027Z,26.90
2022-08-26T14:30:58.125Z,26.80
2022-08-26T14:33:38.223Z,26.90
2022-08-26T14:36:28.108Z,26.90
2022-08-26T14:39:11.148Z,26.90
2022-08-26T14:41:54.379Z,27.00
2022-08-26T14:44:33.088Z,27.20
2022-08-26T14:47:08.471Z,27.30
2022-08-26T14:49:43.555Z,27.40
2022-08-26T14:52:18.607Z,27.60
2022-08-26T14:54:54.929Z,27.60
2022-08-26T14:57:30.540Z,27.70
2022-08-26T15:00:06.700Z,27.80
2022-08-26T15:02:42.435Z,27.80
2022-08-26T15:05:18.289Z,27.90
2022-08-26T15:07:53.524Z,27.90
2022-08-26T15:10:28.533Z,28.00
2022-08-26T15:13:03.583Z,28.10
2022-08-26T15:15:38.730Z,28.10
2022-08-26T15:18:13.827Z,28.20
2022-08-26T15:20:49.095Z,28.10
2022-08-26T15:23:24.126Z,28.10
2022-08-26T15:25:59.231Z,28.20
2022-08-26T15:28:34.645Z,28.30
2022-08-26T15:31:10.295Z,28.40
2022-08-26T15:33:45.926Z,28.40
2022-08-26T15:36:21.028Z,28.50
2022-08-26T15:38:58.894Z,28.50
2022-08-26T15:41:34.940Z,28.60
2022-08-26T15:44:11.870Z,28.60
2022-08-26T15:46:49.600Z,28.70
2022-08-26T15:49:24.826Z,28.90
2022-08-26T15:51:59.964Z,29.00
2022-08-26T15:54:35.533Z,29.00
2022-08-26T15:57:12.364Z,29.90
2022-08-26T15:59:48.875Z,31.60
2022-08-26T16:02:27.251Z,33.60
2022-08-26T16:05:04.417Z,35.00
2022-08-26T16:07:40.445Z,36.40
2022-08-26T16:10:15.380Z,39.00
2022-08-26T16:12:50.783Z,42.60
2022-08-26T16:15:25.760Z,47.10
2022-08-26T16:18:02.306Z,51.00
2022-08-26T16:20:56.020Z,53.00
2022-08-26T16:23:45.078Z,58.60
2022-08-26T16:26:25.725Z,55.50
2022-08-26T16:29:09.131Z,63.00
2022-08-26T16:31:44.150Z,59.50
2022-08-26T16:34:19.292Z,65.60
2022-08-26T16:36:54.368Z,74.20
2022-08-26T16:39:29.405Z,79.90
2022-08-26T16:42:05.204Z,88.20
2022-08-26T16:44:46.524Z,90.20
2022-08-26T16:47:23.088Z,92.10
2022-08-26T16:49:58.280Z,93.10
2022-08-26T16:52:34.106Z,93.60
2022-08-26T16:55:14.415Z,94.30
2022-08-26T16:57:51.558Z,94.20
2022-08-26T17:00:30.391Z,94.50
2022-08-26T17:03:05.700Z,94.70
2022-08-26T17:05:40.692Z,94.70
2022-08-26T17:08:24.256Z,94.40
2022-08-26T17:11:02.713Z,94.60
2022-08-26T17:13:39.034Z,94.80
2022-08-26T17:16:14.884Z,94.60
2022-08-26T17:18:50.163Z,94.30
2022-08-26T17:21:27.886Z,94.20
2022-08-26T17:24:05.270Z,93.80
2022-08-26T17:26:44.206Z,94.10
2022-08-26T17:29:23.439Z,94.30
2022-08-26T17:31:58.617Z,94.70
2022-08-26T17:34:33.849Z,95.50
2022-08-26T17:37:08.898Z,96.50
2022-08-26T17:39:44.147Z,97.10
2022-08-26T17:42:19.247Z,96.50
2022-08-26T17:44:55.280Z,96.10
2022-08-26T17:47:32.074Z,95.80
2022-08-26T17:50:11.304Z,95.20
2022-08-26T17:52:46.714Z,95.50
2022-08-26T17:55:22.057Z,96.00
2022-08-26T17:57:59.373Z,96.20
2022-08-26T18:00:36.376Z,96.40
2022-08-26T18:03:11.789Z,96.80
2022-08-26T18:05:52.061Z,97.00
2022-08-26T18:08:27.173Z,97.10
2022-08-26T18:11:02.944Z,97.40
2022-08-26T18:13:38.872Z,97.40
2022-08-26T18:16:22.439Z,97.60
2022-08-26T18:18:58.369Z,97.40
2022-08-26T18:21:33.403Z,97.60
2022-08-26T18:24:13.376Z,98.00
2022-08-26T18:26:50.883Z,98.30
2022-08-26T18:29:26.046Z,98.50
2022-08-26T18:32:01.327Z,98.70
2022-08-26T18:34:36.652Z,98.60
2022-08-26T18:39:48.690Z,98.20
2022-08-26T18:42:23.993Z,98.10
2022-08-26T18:44:58.975Z,98.20
2022-08-26T18:47:34.205Z,98.30
2022-08-26T18:50:11.177Z,98.30
2022-08-26T18:52:46.168Z,98.30
2022-08-26T18:55:21.517Z,98.10
2022-08-26T18:57:56.392Z,98.10
2022-08-26T19:00:31.573Z,98.10
2022-08-26T19:03:08.308Z,97.90
2022-08-26T19:05:54.090Z,98.00
2022-08-26T19:08:28.982Z,97.80
2022-08-26T19:11:04.525Z,97.70
2022-08-26T19:13:42.930Z,97.80
2022-08-26T19:16:21.118Z,97.70
2022-08-26T19:18:58.301Z,97.60
2022-08-26T19:21:35.613Z,97.60
2022-08-26T19:24:17.169Z,97.60
2022-08-26T19:26:57.934Z,97.60
2022-08-26T19:29:35.461Z,97.50
2022-08-26T19:32:10.362Z,97.40
2022-08-26T19:34:45.296Z,97.30
2022-08-26T19:37:21.149Z,97.20
2022-08-26T19:39:56.138Z,97.10
2022-08-26T19:42:31.051Z,96.90
2022-08-26T19:45:20.225Z,96.90
2022-08-26T19:48:00.614Z,96.80
2022-08-26T19:50:35.714Z,96.80
2022-08-26T19:53:10.591Z,96.60
2022-08-26T19:55:45.459Z,96.70
2022-08-26T19:58:20.349Z,96.60
2022-08-26T20:00:55.291Z,96.70
2022-08-26T20:03:30.574Z,96.60
2022-08-26T20:06:08.478Z,96.60
2022-08-26T20:08:44.733Z,96.60
2022-08-26T20:11:19.675Z,96.50
2022-08-26T20:13:55.218Z,96.40
2022-08-26T20:16:30.319Z,96.40
2022-08-26T20:19:23.687Z,96.30
2022-08-26T20:21:58.600Z,96.30
2022-08-26T20:24:35.547Z,96.20
2022-08-26T20:27:10.440Z,96.40
2022-08-26T20:29:45.466Z,96.30
2022-08-26T20:32:20.474Z,96.20
2022-08-26T20:34:55.709Z,96.20
2022-08-26T20:37:31.913Z,96.30
2022-08-26T20:40:09.395Z,96.20
2022-08-26T20:42:44.325Z,96.20
2022-08-26T20:45:19.342Z,96.10
2022-08-26T20:47:54.835Z,96.20
2022-08-26T20:50:32.591Z,96.10
2022-08-26T20:53:08.900Z,96.10
2022-08-26T20:55:43.791Z,96.10
2022-08-26T20:58:19.198Z,96.10
2022-08-26T21:00:54.451Z,96.00
2022-08-26T21:03:30.623Z,96.00
2022-08-26T21:06:05.927Z,96.00
2022-08-26T21:08:42.620Z,96.00
2022-08-26T21:11:18.769Z,95.90
2022-08-26T21:14:16.197Z,95.80
2022-08-26T21:16:48.883Z,95.70
2022-08-26T21:19:23.844Z,95.80
2022-08-26T21:21:59.340Z,95.90
2022-08-26T21:24:34.237Z,96.00
2022-08-26T21:27:09.107Z,96.00
2022-08-26T21:29:44.017Z,96.10
2022-08-26T21:32:23.554Z,96.20
2022-08-26T21:34:59.881Z,96.10
2022-08-26T21:37:34.794Z,96.00
2022-08-26T21:40:10.514Z,96.10
2022-08-26T21:42:45.550Z,96.00
2022-08-26T21:45:20.530Z,96.10
2022-08-26T21:47:55.543Z,96.10
2022-08-26T21:50:30.533Z,96.00
2022-08-26T21:53:05.641Z,95.90
2022-08-26T21:55:42.173Z,95.80
2022-08-26T21:58:17.043Z,95.80
2022-08-26T22:00:52.043Z,95.80
2022-08-26T22:03:27.117Z,95.80
2022-08-26T22:06:02.051Z,95.90
2022-08-26T22:08:37.225Z,95.90
2022-08-26T22:11:13.168Z,95.80
2022-08-26T22:13:49.436Z,95.80
2022-08-26T22:16:26.712Z,95.80
2022-08-26T22:19:02.005Z,95.80
2022-08-26T22:21:37.369Z,95.70
2022-08-26T22:24:12.512Z,95.80
2022-08-26T22:26:48.642Z,95.70
2022-08-26T22:29:25.039Z,95.70
2022-08-26T22:32:00.963Z,95.70
2022-08-26T22:34:35.906Z,95.70
2022-08-26T22:37:11.504Z,95.70
2022-08-26T22:39:46.451Z,95.70
2022-08-26T22:42:21.654Z,95.60
2022-08-26T22:44:56.516Z,95.70
2022-08-26T22:47:33.140Z,95.70
2022-08-26T22:50:10.677Z,95.70
2022-08-26T22:52:45.539Z,95.70
2022-08-26T22:55:20.411Z,95.60
2022-08-26T22:57:55.304Z,95.70
2022-08-26T23:00:32.447Z,95.80
2022-08-26T23:03:07.830Z,95.60
2022-08-26T23:05:44.438Z,95.60
2022-08-26T23:08:21.297Z,95.60
2022-08-26T23:10:56.302Z,95.60
2022-08-26T23:13:31.427Z,95.60
2022-08-26T23:16:10.885Z,95.60
2022-08-26T23:18:45.886Z,95.70
2022-08-26T23:21:20.957Z,95.70
2022-08-26T23:23:56.298Z,95.90
2022-08-26T23:26:31.826Z,95.70
2022-08-26T23:29:09.896Z,95.70
2022-08-26T23:31:45.004Z,95.80
2022-08-26T23:34:39.072Z,95.70
2022-08-26T23:37:14.130Z,95.70
2022-08-26T23:39:50.590Z,95.70
2022-08-26T23:42:25.547Z,95.80
2022-08-26T23:45:09.990Z,95.70
2022-08-26T23:47:45.548Z,95.60
2022-08-26T23:50:45.028Z,95.70
2022-08-26T23:53:22.385Z,95.80
2022-08-26T23:55:57.275Z,95.90
2022-08-26T23:58:32.138Z,95.80
